Time;durP1;ratioP1;P1;durP2;ratioP2;P2;SDS_P1;SDS_P2;PMS_P1;PMS_P2;Temp;Humidity;BMP_temperature;BMP_pressure;BME280_temperature;BME280_humidity;BME280_pressure;Samples;Min_cycle;Max_cycle;Signal;HPM_P1;HPM_P2
2023/02/13 00:00:35;;;;;;;12.77;6.53;;;6.40;99.90;;;;;;5096813;28;25122;-76
2023/02/13 00:03:03;;;;;;;10.20;6.18;;;6.40;99.90;;;;;;5096880;28;25090;-76
2023/02/13 00:05:31;;;;;;;12.18;6.75;;;6.40;99.90;;;;;;5097266;28;25054;-76
2023/02/13 00:07:59;;;;;;;10.57;6.05;;;6.40;99.90;;;;;;5097115;28;25081;-76
2023/02/13 00:10:26;;;;;;;10.70;5.93;;;6.40;99.90;;;;;;5096589;28;25124;-76
2023/02/13 00:12:53;;;;;;;11.00;6.00;;;6.40;99.90;;;;;;5096513;28;25084;-76
2023/02/13 00:15:21;;;;;;;18.90;8.48;;;6.40;99.90;;;;;;5078547;28;25066;-76
2023/02/13 00:17:48;;;;;;;57.40;21.33;;;6.40;99.90;;;;;;5096668;28;25064;-76
2023/02/13 00:20:15;;;;;;;22.50;10.63;;;6.40;99.90;;;;;;5096416;28;25055;-76
2023/02/13 00:22:42;;;;;;;17.33;8.82;;;6.40;99.90;;;;;;5096666;28;25111;-76
2023/02/13 00:25:09;;;;;;;20.38;8.65;;;6.40;99.90;;;;;;5078402;28;25106;-76
2023/02/13 00:27:36;;;;;;;18.13;8.25;;;6.40;99.90;;;;;;5096921;28;25062;-76
2023/02/13 00:30:05;;;;;;;15.70;7.60;;;6.40;99.90;;;;;;5078574;28;25111;-76
2023/02/13 00:32:32;;;;;;;12.82;6.13;;;6.40;99.90;;;;;;5078543;28;25051;-76
2023/02/13 00:34:59;;;;;;;14.07;6.18;;;6.40;99.90;;;;;;5074802;28;25079;-76
2023/02/13 00:37:27;;;;;;;10.90;5.68;;;6.50;99.90;;;;;;5074910;28;25083;-76
2023/02/13 00:39:55;;;;;;;11.73;6.55;;;6.50;99.90;;;;;;5075156;28;25057;-76
2023/02/13 00:42:25;;;;;;;10.40;6.03;;;6.50;99.90;;;;;;5075998;28;25061;-76
2023/02/13 00:44:53;;;;;;;12.68;6.88;;;6.50;99.90;;;;;;5074882;28;25062;-76
2023/02/13 00:47:20;;;;;;;12.18;5.97;;;6.50;99.90;;;;;;5075484;28;25114;-76
2023/02/13 00:49:48;;;;;;;9.63;6.00;;;6.50;99.90;;;;;;5074317;28;25099;-76
2023/02/13 00:52:15;;;;;;;15.05;7.53;;;6.50;99.90;;;;;;5074847;28;25064;-76
2023/02/13 00:54:42;;;;;;;12.27;7.07;;;6.50;99.90;;;;;;5076487;28;25097;-76
2023/02/13 00:57:09;;;;;;;15.82;8.13;;;6.50;99.90;;;;;;5072946;28;25061;-76
2023/02/13 00:59:36;;;;;;;12.18;6.80;;;6.50;99.90;;;;;;5076559;28;25069;-76
2023/02/13 01:02:03;;;;;;;16.58;7.82;;;6.50;99.90;;;;;;5079014;28;25167;-75
2023/02/13 01:04:31;;;;;;;12.93;7.18;;;6.50;99.90;;;;;;5077840;28;25106;-76
2023/02/13 01:06:58;;;;;;;12.60;7.63;;;6.50;99.90;;;;;;5078998;28;25115;-76
2023/02/13 01:09:25;;;;;;;13.90;7.20;;;6.50;99.90;;;;;;5079081;28;25108;-76
2023/02/13 01:11:52;;;;;;;12.93;6.65;;;6.40;99.90;;;;;;5078995;28;25096;-76
2023/02/13 01:14:20;;;;;;;16.98;7.72;;;6.40;99.90;;;;;;5078363;28;25074;-76
2023/02/13 01:16:47;;;;;;;16.08;7.78;;;6.40;99.90;;;;;;5078307;28;25040;-76
2023/02/13 01:19:14;;;;;;;12.95;6.45;;;6.40;99.90;;;;;;5080017;28;25114;-76
2023/02/13 01:21:42;;;;;;;10.85;5.82;;;6.40;99.90;;;;;;5078243;28;25105;-76
2023/02/13 01:24:10;;;;;;;10.48;6.07;;;6.40;99.90;;;;;;5079630;28;25113;-76
2023/02/13 01:26:37;;;;;;;16.15;6.18;;;6.40;99.90;;;;;;5079512;28;25057;-76
2023/02/13 01:29:04;;;;;;;11.20;6.15;;;6.40;99.90;;;;;;5079727;28;25051;-76
2023/02/13 01:31:31;;;;;;;13.05;6.72;;;6.40;99.90;;;;;;5078094;28;25077;-76
2023/02/13 01:33:59;;;;;;;11.88;6.30;;;6.40;99.90;;;;;;5087403;28;25078;-76
2023/02/13 01:36:27;;;;;;;17.02;6.80;;;6.40;99.90;;;;;;5099914;28;25101;-76
2023/02/13 01:38:56;;;;;;;11.93;6.40;;;6.30;99.90;;;;;;5081496;28;25048;-76
2023/02/13 01:41:24;;;;;;;13.65;6.78;;;6.30;99.90;;;;;;5099242;28;25052;-76
2023/02/13 01:43:58;;;;;;;12.25;6.88;;;6.30;99.90;;;;;;5081264;28;25114;-76
2023/02/13 01:46:38;;;;;;;14.23;6.55;;;6.30;99.90;;;;;;5099175;28;25142;-76
2023/02/13 01:49:19;;;;;;;14.23;6.38;;;6.30;99.90;;;;;;5081295;28;25062;-76
2023/02/13 01:51:51;;;;;;;14.45;6.65;;;6.30;99.90;;;;;;5099618;28;25084;-76
2023/02/13 01:54:29;;;;;;;11.82;6.38;;;6.40;99.90;;;;;;5081116;28;25099;-76
2023/02/13 01:57:08;;;;;;;11.57;6.35;;;6.30;99.90;;;;;;5080849;28;25111;-76
2023/02/13 01:59:54;;;;;;;13.10;6.47;;;6.40;99.90;;;;;;5081109;28;25109;-76
2023/02/13 02:02:21;;;;;;;;;;;6.40;99.90;;;;;;5081690;28;25087;-76
2023/02/13 02:04:50;;;;;;;11.70;6.10;;;6.30;99.90;;;;;;5079642;28;24058;-76
2023/02/13 02:07:28;;;;;;;13.00;6.18;;;6.40;99.90;;;;;;5097976;28;25066;-76
2023/02/13 02:10:03;;;;;;;14.45;6.85;;;6.40;99.90;;;;;;5080937;28;25117;-76
2023/02/13 02:12:56;;;;;;;10.68;6.35;;;6.40;99.90;;;;;;5080638;28;25084;-76
2023/02/13 02:15:23;;;;;;;15.63;6.90;;;6.40;99.90;;;;;;5098635;28;25056;-76
2023/02/13 02:17:51;;;;;;;10.38;5.82;;;6.40;99.90;;;;;;5098468;28;25074;-76
2023/02/13 02:20:34;;;;;;;10.50;5.90;;;6.40;99.90;;;;;;5099456;28;25078;-76
2023/02/13 02:23:20;;;;;;;14.85;5.97;;;6.40;99.90;;;;;;5080499;28;25099;-76
2023/02/13 02:26:24;;;;;;;13.48;6.28;;;6.40;99.90;;;;;;5080454;28;25051;-76
2023/02/13 02:29:13;;;;;;;12.13;6.43;;;6.40;99.90;;;;;;5080342;28;25101;-76
2023/02/13 02:32:02;;;;;;;13.07;6.65;;;6.40;99.90;;;;;;5098540;28;25054;-76
2023/02/13 02:35:05;;;;;;;13.27;6.40;;;6.40;99.90;;;;;;5098322;28;25121;-76
2023/02/13 02:38:01;;;;;;;12.27;6.25;;;6.40;99.90;;;;;;5098353;28;25197;-76
2023/02/13 02:41:01;;;;;;;13.32;7.40;;;6.40;99.90;;;;;;5098612;28;25062;-76
2023/02/13 02:43:56;;;;;;;13.35;5.95;;;6.40;99.90;;;;;;5084809;28;25108;-76
2023/02/13 02:46:34;;;;;;;11.52;5.70;;;6.40;99.90;;;;;;5098819;28;25114;-76
2023/02/13 02:51:59;;;;;;;9.82;5.72;;;6.40;99.90;;;;;;5098174;28;25051;-76
2023/02/13 03:06:09;;;;;;;9.68;5.20;;;6.30;99.90;;;;;;5097674;28;25063;-76
2023/02/13 03:06:26;;;;;;;11.88;5.72;;;6.30;99.90;;;;;;5098206;28;25109;-76
2023/02/13 03:14:37;;;;;;;11.15;5.78;;;6.30;99.90;;;;;;5097764;28;25055;-76
2023/02/13 03:23:16;;;;;;;10.70;5.97;;;6.30;99.90;;;;;;5096940;28;25057;-76
2023/02/13 03:25:57;;;;;;;10.47;5.90;;;6.30;99.90;;;;;;5079259;28;25146;-76
2023/02/13 03:32:02;;;;;;;11.25;5.45;;;6.30;99.90;;;;;;5097652;28;25082;-76
2023/02/13 03:37:53;;;;;;;11.20;5.68;;;6.30;99.90;;;;;;5097316;28;25110;-76
2023/02/13 03:40:28;;;;;;;13.35;5.60;;;6.30;99.90;;;;;;5097298;28;25132;-76
2023/02/13 03:43:12;;;;;;;11.60;6.00;;;6.30;99.90;;;;;;5097240;28;25062;-76
2023/02/13 03:45:52;;;;;;;12.82;5.78;;;6.30;99.90;;;;;;5097089;28;25059;-76
2023/02/13 03:51:42;;;;;;;11.63;6.13;;;6.30;99.90;;;;;;5097415;28;25106;-76
2023/02/13 04:00:11;;;;;;;15.68;6.00;;;6.40;99.90;;;;;;5097275;28;25135;-76
2023/02/13 04:03:01;;;;;;;12.40;5.93;;;6.40;99.90;;;;;;5096920;28;25057;-76
2023/02/13 04:05:36;;;;;;;13.10;7.25;;;6.40;99.90;;;;;;5079251;28;25072;-76
2023/02/13 04:08:04;;;;;;;11.75;5.85;;;6.40;99.90;;;;;;5096887;28;25076;-76
2023/02/13 04:10:36;;;;;;;15.25;6.38;;;6.40;99.90;;;;;;5096826;28;25127;-76
2023/02/13 04:13:21;;;;;;;14.27;6.05;;;6.40;99.90;;;;;;5096788;28;25125;-76
2023/02/13 04:15:59;;;;;;;12.90;6.45;;;6.40;99.90;;;;;;5096527;28;25140;-76
2023/02/13 04:18:32;;;;;;;14.90;6.47;;;6.40;99.90;;;;;;5096876;28;25118;-76
2023/02/13 04:21:04;;;;;;;15.48;6.53;;;6.40;99.90;;;;;;5078542;28;25092;-76
2023/02/13 04:23:32;;;;;;;12.57;6.18;;;6.40;99.90;;;;;;5097017;28;25067;-76
2023/02/13 04:26:03;;;;;;;12.55;6.18;;;6.40;99.90;;;;;;5078502;28;25060;-76
2023/02/13 04:28:30;;;;;;;16.10;6.60;;;6.40;99.90;;;;;;5078415;28;25117;-76
2023/02/13 04:30:57;;;;;;;11.93;5.93;;;6.40;99.90;;;;;;5096652;28;25085;-76
2023/02/13 04:33:25;;;;;;;12.55;5.93;;;6.40;99.90;;;;;;5078257;28;25127;-76
2023/02/13 04:35:52;;;;;;;11.75;5.22;;;6.40;99.90;;;;;;5097746;28;25056;-76
2023/02/13 04:38:19;;;;;;;13.13;6.47;;;6.40;99.90;;;;;;5100359;28;25055;-76
2023/02/13 04:40:46;;;;;;;15.68;5.82;;;6.40;99.90;;;;;;5100850;28;25058;-76
2023/02/13 04:43:13;;;;;;;15.15;6.13;;;6.30;99.90;;;;;;5100361;28;25067;-76
2023/02/13 04:45:40;;;;;;;13.95;5.90;;;6.40;99.90;;;;;;5100660;28;25066;-76
2023/02/13 04:48:08;;;;;;;14.77;5.18;;;6.30;99.90;;;;;;5100271;28;25060;-76
2023/02/13 04:50:36;;;;;;;13.52;6.05;;;6.40;99.90;;;;;;5082677;28;25110;-76
2023/02/13 04:53:03;;;;;;;15.88;5.85;;;6.40;99.90;;;;;;5082223;28;25100;-76
2023/02/13 04:55:30;;;;;;;13.52;5.40;;;6.40;99.90;;;;;;5082155;28;25049;-76
2023/02/13 04:57:58;;;;;;;13.60;5.80;;;6.40;99.90;;;;;;5100612;28;25115;-76
2023/02/13 05:00:27;;;;;;;13.75;4.95;;;6.40;99.90;;;;;;5100226;28;25062;-76
2023/02/13 05:03:00;;;;;;;15.00;5.82;;;6.40;99.90;;;;;;5082034;28;25143;-76
2023/02/13 05:05:28;;;;;;;11.75;5.18;;;6.30;99.90;;;;;;5099955;28;25137;-76
2023/02/13 05:07:56;;;;;;;14.77;5.78;;;6.30;99.90;;;;;;5100502;28;25059;-76
2023/02/13 05:10:23;;;;;;;12.82;5.22;;;6.30;99.90;;;;;;5082060;28;25085;-76
2023/02/13 05:12:52;;;;;;;13.88;5.78;;;6.30;99.90;;;;;;5099800;28;25071;-76
2023/02/13 05:15:19;;;;;;;14.40;5.90;;;6.30;99.90;;;;;;5099814;28;25091;-76
2023/02/13 05:17:46;;;;;;;13.05;5.93;;;6.30;99.90;;;;;;5099695;28;25120;-76
2023/02/13 05:20:15;;;;;;;16.00;5.63;;;6.30;99.90;;;;;;5100405;28;25074;-76
2023/02/13 05:25:33;;;;;;;15.13;5.47;;;6.30;99.90;;;;;;5099964;28;25095;-76
2023/02/13 05:28:00;;;;;;;13.43;5.65;;;6.30;99.90;;;;;;5081503;28;25135;-76
2023/02/13 05:30:27;;;;;;;12.80;5.60;;;6.30;99.90;;;;;;5099704;28;25106;-76
2023/02/13 05:32:55;;;;;;;14.57;5.55;;;6.30;99.90;;;;;;5081396;28;25063;-76
2023/02/13 05:35:23;;;;;;;18.92;6.18;;;6.30;99.90;;;;;;5076755;28;25117;-76
2023/02/13 05:37:51;;;;;;;17.38;6.30;;;6.30;99.90;;;;;;5078135;28;25130;-76
2023/02/13 05:40:19;;;;;;;11.90;5.30;;;6.20;99.90;;;;;;5074959;28;25070;-76
2023/02/13 05:42:46;;;;;;;13.15;6.03;;;6.20;99.90;;;;;;5076794;28;25106;-76
2023/02/13 05:45:14;;;;;;;15.70;5.50;;;6.30;99.90;;;;;;5076765;28;25070;-76
2023/02/13 05:47:42;;;;;;;11.32;4.88;;;6.20;99.90;;;;;;5077596;28;25062;-76
2023/02/13 05:50:09;;;;;;;8.50;3.92;;;6.20;99.90;;;;;;5076842;28;25124;-76
2023/02/13 05:52:37;;;;;;;8.80;3.85;;;6.20;99.90;;;;;;5077063;28;25067;-76
2023/02/13 05:55:05;;;;;;;9.48;4.35;;;6.20;99.90;;;;;;5076602;28;25046;-76
2023/02/13 05:57:32;;;;;;;11.85;4.28;;;6.20;99.90;;;;;;5077805;28;25117;-76
2023/02/13 06:00:00;;;;;;;39.30;12.60;;;6.20;99.90;;;;;;5076646;28;25057;-76
2023/02/13 06:02:27;;;;;;;43.55;15.40;;;6.20;99.90;;;;;;5078108;28;25096;-76
2023/02/13 06:04:55;;;;;;;29.95;12.25;;;6.20;99.90;;;;;;5076432;28;25122;-76
2023/02/13 06:07:22;;;;;;;39.38;14.77;;;6.20;99.90;;;;;;5077703;28;25116;-76
2023/02/13 06:09:49;;;;;;;39.42;13.95;;;6.20;99.90;;;;;;5076455;28;25068;-76
2023/02/13 06:12:17;;;;;;;52.30;17.98;;;6.20;99.90;;;;;;5076283;28;25062;-76
2023/02/13 06:14:44;;;;;;;30.02;11.10;;;6.20;99.90;;;;;;5075331;28;25080;-76
2023/02/13 06:17:11;;;;;;;27.60;11.20;;;6.20;99.90;;;;;;5077418;28;25052;-76
2023/02/13 06:19:39;;;;;;;18.52;7.90;;;6.20;99.90;;;;;;5076311;28;25094;-76
2023/02/13 06:22:06;;;;;;;20.67;8.05;;;6.20;99.90;;;;;;5078176;28;25087;-76
2023/02/13 06:24:33;;;;;;;13.32;5.70;;;6.20;99.90;;;;;;5077488;28;25085;-76
2023/02/13 06:27:00;;;;;;;11.50;4.38;;;6.20;99.90;;;;;;5077362;28;25053;-76
2023/02/13 06:29:27;;;;;;;10.25;4.40;;;6.20;99.90;;;;;;5077180;28;25077;-76
2023/02/13 06:31:55;;;;;;;8.23;3.78;;;6.20;99.90;;;;;;5077287;28;25062;-76
2023/02/13 06:34:22;;;;;;;8.43;3.70;;;6.20;99.90;;;;;;4983167;28;2657798;-76
2023/02/13 06:36:49;;;;;;;9.23;3.97;;;6.20;99.90;;;;;;5077948;28;25144;-76
2023/02/13 06:39:17;;;;;;;17.65;7.80;;;6.20;99.90;;;;;;5078004;28;25105;-76
2023/02/13 06:41:44;;;;;;;11.48;5.28;;;6.20;99.90;;;;;;5076792;28;25075;-76
2023/02/13 06:44:12;;;;;;;9.68;3.97;;;6.10;99.90;;;;;;5077745;28;25053;-76
2023/02/13 06:46:39;;;;;;;8.55;3.95;;;6.10;99.90;;;;;;5077700;28;25065;-76
2023/02/13 06:49:06;;;;;;;7.28;3.47;;;6.10;99.90;;;;;;5077024;28;25135;-76
2023/02/13 06:51:33;;;;;;;8.98;3.75;;;6.10;99.90;;;;;;5077638;28;25128;-76
2023/02/13 06:54:01;;;;;;;10.07;3.60;;;6.10;99.90;;;;;;5076452;28;25063;-76
2023/02/13 06:56:29;;;;;;;7.78;3.28;;;6.10;99.90;;;;;;5077810;28;25050;-76
2023/02/13 06:58:56;;;;;;;8.27;3.45;;;6.10;99.90;;;;;;5076697;28;25075;-76
2023/02/13 07:01:23;;;;;;;8.02;3.38;;;6.00;99.90;;;;;;5077416;28;25044;-76
2023/02/13 07:03:50;;;;;;;6.68;3.42;;;6.00;99.90;;;;;;5077997;28;25096;-75
2023/02/13 07:06:19;;;;;;;8.43;4.25;;;6.00;99.90;;;;;;5076268;28;25054;-75
2023/02/13 07:08:47;;;;;;;10.23;4.18;;;6.00;99.90;;;;;;5076509;28;25068;-79
2023/02/13 07:11:22;;;;;;;8.85;4.03;;;6.00;99.90;;;;;;5076130;28;25136;-75
2023/02/13 07:13:50;;;;;;;7.50;3.83;;;6.00;99.90;;;;;;5075457;28;25124;-76
2023/02/13 07:16:17;;;;;;;9.30;3.83;;;6.00;99.90;;;;;;5077063;28;25113;-75
2023/02/13 07:18:45;;;;;;;6.97;3.53;;;6.00;99.90;;;;;;5077197;28;25076;-75
2023/02/13 07:21:12;;;;;;;6.95;3.28;;;6.00;99.90;;;;;;5077053;28;25078;-75
2023/02/13 07:23:39;;;;;;;6.97;3.42;;;6.00;99.90;;;;;;5076067;28;25078;-86
2023/02/13 07:26:06;;;;;;;5.43;2.67;;;6.00;99.90;;;;;;5077032;28;25127;-79
2023/02/13 07:28:34;;;;;;;4.70;2.22;;;5.90;99.90;;;;;;5076929;28;25073;-79
2023/02/13 07:31:05;;;;;;;4.25;2.22;;;5.90;99.90;;;;;;5075797;28;25063;-84
2023/02/13 07:33:33;;;;;;;6.15;2.67;;;5.90;99.90;;;;;;5075538;28;25083;-80
2023/02/13 07:36:02;;;;;;;4.15;2.22;;;5.90;99.90;;;;;;5077023;28;25059;-83
2023/02/13 07:38:30;;;;;;;3.78;2.10;;;5.90;99.90;;;;;;5076675;28;25052;-79
2023/02/13 07:41:02;;;;;;;3.53;1.77;;;5.80;99.90;;;;;;5077144;28;25084;-86
2023/02/13 07:43:30;;;;;;;3.92;1.90;;;5.80;99.90;;;;;;5076588;28;25074;-81
2023/02/13 07:46:02;;;;;;;4.00;2.08;;;5.80;99.90;;;;;;5076964;28;25101;-86
2023/02/13 07:48:30;;;;;;;3.83;1.60;;;5.80;99.90;;;;;;5075438;28;25064;-79
2023/02/13 07:51:02;;;;;;;4.72;2.20;;;5.90;99.90;;;;;;5075753;28;25127;-81
2023/02/13 07:53:30;;;;;;;4.63;2.10;;;5.90;99.90;;;;;;5076836;28;25065;-82
2023/02/13 07:55:57;;;;;;;6.72;3.38;;;5.90;99.90;;;;;;5075478;28;25068;-80
2023/02/13 07:58:25;;;;;;;7.40;3.47;;;5.90;99.90;;;;;;5075301;28;25051;-78
2023/02/13 08:00:52;;;;;;;5.80;2.45;;;5.90;99.90;;;;;;5075541;28;25091;-78
2023/02/13 08:03:19;;;;;;;4.55;2.20;;;5.90;99.90;;;;;;5076369;28;25075;-80
2023/02/13 08:05:48;;;;;;;6.38;2.40;;;6.00;99.90;;;;;;5075331;28;25061;-78
2023/02/13 08:08:16;;;;;;;4.80;2.13;;;6.00;99.90;;;;;;5076385;28;25045;-78
2023/02/13 08:13:28;;;;;;;5.13;1.85;;;6.10;99.90;;;;;;5076301;28;25069;-72
2023/02/13 08:15:57;;;;;;;4.25;1.70;;;6.10;99.90;;;;;;5075488;28;25119;-72
2023/02/13 08:18:25;;;;;;;4.00;2.17;;;6.10;99.90;;;;;;5076149;28;25075;-72
2023/02/13 08:20:53;;;;;;;3.72;2.05;;;6.20;99.90;;;;;;5076685;28;25052;-72
2023/02/13 08:23:20;;;;;;;3.92;1.90;;;6.20;99.90;;;;;;5075129;28;25061;-72
2023/02/13 08:25:48;;;;;;;3.80;1.88;;;6.20;99.90;;;;;;5076793;28;25047;-73
2023/02/13 08:28:16;;;;;;;4.25;2.10;;;6.20;99.90;;;;;;5076154;28;25137;-72
2023/02/13 08:30:44;;;;;;;5.47;1.92;;;6.20;99.90;;;;;;5076337;28;25092;-72
2023/02/13 08:33:11;;;;;;;4.82;2.35;;;6.30;99.90;;;;;;5076964;28;25106;-73
2023/02/13 08:35:38;;;;;;;3.97;2.22;;;6.30;99.90;;;;;;5078375;28;25062;-73
2023/02/13 08:38:05;;;;;;;3.55;1.80;;;6.40;99.90;;;;;;5096760;28;25109;-74
2023/02/13 08:40:33;;;;;;;4.63;2.03;;;6.40;99.90;;;;;;5078468;28;25063;-74
2023/02/13 08:43:02;;;;;;;5.35;2.03;;;6.40;99.90;;;;;;5096496;28;25060;-73
2023/02/13 08:45:30;;;;;;;4.30;2.17;;;6.40;99.90;;;;;;5078283;28;25077;-73
2023/02/13 08:47:59;;;;;;;5.13;2.38;;;6.50;99.90;;;;;;5096190;28;25102;-73
2023/02/13 08:50:27;;;;;;;4.50;2.85;;;6.50;99.90;;;;;;5096626;28;25061;-73
2023/02/13 08:52:54;;;;;;;3.42;2.03;;;6.60;99.90;;;;;;5078222;28;25154;-73
2023/02/13 08:55:22;;;;;;;5.32;2.60;;;6.60;99.90;;;;;;5078205;28;25068;-72
2023/02/13 08:57:50;;;;;;;4.70;2.15;;;6.60;99.90;;;;;;5078106;28;25069;-72
2023/02/13 09:00:19;;;;;;;5.22;2.65;;;6.70;99.90;;;;;;5078305;28;25068;-73
2023/02/13 09:02:46;;;;;;;4.50;2.25;;;6.70;99.90;;;;;;5096644;28;25049;-73
2023/02/13 09:05:14;;;;;;;5.55;2.70;;;6.70;99.90;;;;;;5094145;28;25130;-76
2023/02/13 09:07:41;;;;;;;6.28;2.45;;;6.80;99.90;;;;;;5078085;28;25080;-73
2023/02/13 09:10:09;;;;;;;4.50;2.22;;;6.80;99.90;;;;;;5096742;28;25088;-74
2023/02/13 09:12:37;;;;;;;4.40;2.22;;;6.80;99.90;;;;;;5096250;28;25078;-74
2023/02/13 09:15:05;;;;;;;4.05;2.25;;;6.90;99.90;;;;;;5078038;28;25068;-74
2023/02/13 09:17:33;;;;;;;5.10;2.50;;;6.90;99.90;;;;;;5077905;28;25074;-73
2023/02/13 09:20:00;;;;;;;5.47;2.42;;;6.90;99.90;;;;;;5078157;28;25279;-74
2023/02/13 09:22:28;;;;;;;4.68;2.20;;;7.00;99.90;;;;;;5098359;28;25125;-74
2023/02/13 09:24:55;;;;;;;5.07;2.35;;;7.00;99.90;;;;;;5099904;28;25081;-74
2023/02/13 09:27:22;;;;;;;4.97;2.33;;;7.10;99.90;;;;;;5099565;28;25051;-74
2023/02/13 09:29:49;;;;;;;4.68;2.47;;;7.10;99.90;;;;;;5098893;28;25061;-74
2023/02/13 09:32:17;;;;;;;3.88;1.75;;;7.20;99.90;;;;;;5081538;28;25061;-74
2023/02/13 09:34:44;;;;;;;3.55;2.15;;;7.20;99.90;;;;;;5099355;28;25068;-74
2023/02/13 09:37:11;;;;;;;3.42;1.80;;;7.30;99.90;;;;;;5099304;28;25136;-74
2023/02/13 09:39:39;;;;;;;7.47;2.65;;;7.40;99.90;;;;;;5099346;28;25086;-74
2023/02/13 09:42:26;;;;;;;4.80;2.28;;;7.40;99.90;;;;;;5099256;28;25055;-74
2023/02/13 09:44:59;;;;;;;3.55;1.65;;;7.40;99.90;;;;;;5099373;28;25055;-74
2023/02/13 09:47:43;;;;;;;4.55;2.30;;;7.50;99.90;;;;;;5081168;28;25049;-74
2023/02/13 09:50:24;;;;;;;2.97;1.67;;;7.50;99.90;;;;;;5081169;28;25070;-74
2023/02/13 09:52:54;;;;;;;4.22;2.38;;;7.60;99.90;;;;;;5097001;28;25098;-74
2023/02/13 09:55:53;;;;;;;4.55;1.98;;;7.60;99.90;;;;;;5099147;28;25052;-74
2023/02/13 09:58:38;;;;;;;4.03;1.95;;;7.70;99.90;;;;;;5098918;28;25105;-74
2023/02/13 10:01:20;;;;;;;3.30;1.80;;;7.70;99.90;;;;;;5098922;28;25058;-73
2023/02/13 10:03:52;;;;;;;4.80;2.38;;;7.70;99.90;;;;;;5099033;28;25076;-73
2023/02/13 10:06:48;;;;;;;3.88;2.10;;;7.70;99.90;;;;;;5099052;28;25078;-74
2023/02/13 10:09:33;;;;;;;4.63;2.47;;;7.70;99.90;;;;;;5080767;28;25051;-75
2023/02/13 10:12:06;;;;;;;5.45;2.33;;;7.70;99.90;;;;;;5098950;28;25113;-75
2023/02/13 10:14:55;;;;;;;3.72;2.00;;;7.60;99.90;;;;;;5099004;28;25071;-75
2023/02/13 10:17:34;;;;;;;6.70;2.65;;;7.60;99.90;;;;;;5098728;28;25050;-75
2023/02/13 10:20:20;;;;;;;3.75;2.13;;;7.60;99.90;;;;;;5098809;28;25074;-77
2023/02/13 10:22:57;;;;;;;5.05;2.47;;;7.60;99.90;;;;;;5080613;28;25061;-74
2023/02/13 10:25:46;;;;;;;4.15;2.22;;;7.50;99.90;;;;;;5098714;28;25056;-73
2023/02/13 10:28:23;;;;;;;4.47;1.90;;;7.50;99.90;;;;;;5098384;28;25119;-73
2023/02/13 10:30:57;;;;;;;4.32;2.25;;;7.60;99.90;;;;;;5098537;28;25084;-74
2023/02/13 10:33:50;;;;;;;4.70;2.25;;;7.60;99.90;;;;;;5096852;28;25078;-74
2023/02/13 10:36:36;;;;;;;4.68;2.30;;;7.60;99.90;;;;;;5098232;28;25048;-73
2023/02/13 10:39:07;;;;;;;6.38;3.30;;;7.60;99.90;;;;;;5098289;28;25109;-74
2023/02/13 10:41:44;;;;;;;4.07;2.20;;;7.60;99.90;;;;;;5098632;28;25069;-76
2023/02/13 10:44:39;;;;;;;4.38;2.38;;;7.70;99.90;;;;;;5098366;28;25062;-75
2023/02/13 10:47:43;;;;;;;4.95;2.33;;;7.70;99.90;;;;;;5098317;28;25090;-76
2023/02/13 10:50:22;;;;;;;4.00;1.92;;;7.70;99.90;;;;;;5090823;28;25078;-74
2023/02/13 10:53:06;;;;;;;5.00;2.70;;;7.70;99.90;;;;;;5079949;28;25074;-73
2023/02/13 10:56:01;;;;;;;5.88;2.20;;;7.80;99.90;;;;;;5097896;28;25069;-76
2023/02/13 10:58:47;;;;;;;5.25;2.53;;;7.80;99.90;;;;;;5098086;28;25172;-78
2023/02/13 11:01:43;;;;;;;5.32;2.50;;;7.90;99.90;;;;;;5098014;28;25065;-74
2023/02/13 11:04:14;;;;;;;4.72;2.28;;;7.90;99.90;;;;;;5089766;28;25060;-74
2023/02/13 11:07:00;;;;;;;3.63;1.92;;;7.90;99.90;;;;;;5079673;28;25078;-73
2023/02/13 11:09:30;;;;;;;6.57;2.70;;;8.00;99.90;;;;;;5097827;28;25065;-73
2023/02/13 11:11:58;;;;;;;4.47;1.92;;;8.00;99.90;;;;;;5097448;28;25074;-73
2023/02/13 11:14:26;;;;;;;5.03;1.95;;;8.00;99.90;;;;;;5098070;28;25066;-73
2023/02/13 11:17:11;;;;;;;4.07;2.10;;;8.00;99.90;;;;;;5079434;28;25126;-75
2023/02/13 11:19:54;;;;;;;5.25;2.58;;;8.00;99.90;;;;;;5097456;28;25102;-75
2023/02/13 11:22:32;;;;;;;4.15;2.17;;;8.10;99.90;;;;;;5079259;28;25058;-73
2023/02/13 11:25:17;;;;;;;5.25;2.33;;;8.10;99.90;;;;;;5097327;28;25102;-74
2023/02/13 11:27:47;;;;;;;5.70;2.47;;;8.10;99.90;;;;;;5097758;28;25054;-73
2023/02/13 11:30:31;;;;;;;5.07;2.75;;;8.10;99.90;;;;;;5097388;28;25151;-73
2023/02/13 11:33:21;;;;;;;4.13;2.30;;;8.10;99.90;;;;;;5097444;28;25120;-73
2023/02/13 11:35:49;;;;;;;5.18;2.88;;;8.20;99.90;;;;;;5097096;28;25100;-74
2023/02/13 11:38:17;;;;;;;4.55;2.58;;;8.20;99.90;;;;;;5097483;28;25052;-74
2023/02/13 11:40:49;;;;;;;5.55;2.88;;;8.20;99.90;;;;;;5078957;28;25074;-74
2023/02/13 11:43:34;;;;;;;3.88;2.28;;;8.20;99.90;;;;;;5096932;28;25093;-73
2023/02/13 11:46:10;;;;;;;4.57;2.38;;;8.20;99.90;;;;;;5078598;28;25111;-73
2023/02/13 11:48:37;;;;;;;5.05;2.78;;;8.30;99.90;;;;;;5096889;28;25061;-75
2023/02/13 11:51:04;;;;;;;5.85;2.80;;;8.30;99.90;;;;;;5097400;28;25124;-76
2023/02/13 11:53:38;;;;;;;4.90;2.50;;;8.30;99.90;;;;;;5097399;28;25104;-75
2023/02/13 11:56:14;;;;;;;4.10;2.33;;;8.30;99.90;;;;;;5096731;28;25146;-75
2023/02/13 11:58:41;;;;;;;4.97;2.30;;;8.40;99.90;;;;;;5097233;28;25098;-76
2023/02/13 12:01:21;;;;;;;5.10;2.80;;;8.30;99.90;;;;;;5096647;28;25064;-74
2023/02/13 12:04:16;;;;;;;5.45;3.10;;;8.40;99.90;;;;;;5097322;28;25089;-76
2023/02/13 12:07:12;;;;;;;6.40;3.25;;;8.40;99.90;;;;;;5078619;28;25090;-73
2023/02/13 12:09:41;;;;;;;4.47;2.43;;;8.50;99.90;;;;;;5096641;28;25079;-73
2023/02/13 12:12:19;;;;;;;5.43;2.95;;;8.50;99.90;;;;;;5096537;28;25067;-73
2023/02/13 12:14:47;;;;;;;7.88;3.53;;;8.50;99.90;;;;;;5096720;28;25065;-74
2023/02/13 12:17:22;;;;;;;5.47;3.05;;;8.50;99.90;;;;;;5096474;28;25099;-74
2023/02/13 12:19:53;;;;;;;6.47;3.53;;;8.50;99.90;;;;;;5096525;28;25137;-79
2023/02/13 12:22:34;;;;;;;3.88;2.53;;;8.60;99.90;;;;;;5096660;28;25057;-75
2023/02/13 12:25:08;;;;;;;6.50;3.70;;;8.60;99.90;;;;;;5096801;28;25133;-75
2023/02/13 12:28:06;;;;;;;4.82;2.72;;;8.70;99.90;;;;;;5096884;28;25053;-75
2023/02/13 12:30:54;;;;;;;4.88;2.75;;;8.70;99.90;;;;;;5083086;28;25116;-75
2023/02/13 12:33:41;;;;;;;4.35;2.60;;;8.70;99.90;;;;;;5096765;28;25104;-75
2023/02/13 12:36:21;;;;;;;4.75;2.58;;;8.70;99.90;;;;;;5096619;28;25114;-80
2023/02/13 12:39:08;;;;;;;4.43;2.65;;;8.80;99.90;;;;;;5078290;28;25068;-77
2023/02/13 12:41:44;;;;;;;;;;;8.80;99.90;;;;;;5096972;28;25069;-75
2023/02/13 12:44:44;;;;;;;3.47;2.00;;;8.80;99.90;;;;;;5096712;28;24059;-75
2023/02/13 12:47:41;;;;;;;3.58;2.08;;;8.80;99.90;;;;;;5078248;28;25053;-75
2023/02/13 12:50:52;;;;;;;3.55;1.90;;;8.80;99.90;;;;;;5096544;28;25106;-77
2023/02/13 12:53:35;;;;;;;4.38;2.45;;;8.80;99.90;;;;;;5096113;28;25121;-75
2023/02/13 12:56:24;;;;;;;6.15;2.78;;;8.70;99.90;;;;;;5096351;28;25068;-74
2023/02/13 12:59:15;;;;;;;5.10;3.03;;;8.70;99.90;;;;;;5100310;28;25079;-74
2023/02/13 13:02:09;;;;;;;3.88;2.33;;;8.70;99.90;;;;;;5100051;28;25084;-74
2023/02/13 13:04:53;;;;;;;4.90;2.83;;;8.80;99.90;;;;;;5100157;28;25078;-78
2023/02/13 13:07:37;;;;;;;5.38;2.70;;;8.80;99.90;;;;;;5081902;28;25064;-76
2023/02/13 13:10:25;;;;;;;6.07;3.60;;;8.90;99.90;;;;;;5100208;28;25075;-75
2023/02/13 13:13:03;;;;;;;4.70;2.85;;;9.00;99.90;;;;;;5081806;28;25058;-73
2023/02/13 13:15:40;;;;;;;5.97;3.05;;;9.10;99.90;;;;;;5081966;28;25056;-74
2023/02/13 13:18:32;;;;;;;5.18;2.50;;;9.20;99.90;;;;;;5081584;28;25090;-74
2023/02/13 13:21:12;;;;;;;4.22;2.20;;;9.30;99.90;;;;;;5100268;28;25106;-74
2023/02/13 13:24:01;;;;;;;5.10;2.60;;;9.30;99.90;;;;;;5100317;28;25073;-75
2023/02/13 13:26:41;;;;;;;11.68;2.65;;;9.30;99.90;;;;;;5099853;28;25068;-76
2023/02/13 13:30:00;;;;;;;4.75;2.00;;;9.40;99.90;;;;;;5099587;28;25113;-75
2023/02/13 13:32:30;;;;;;;5.63;2.75;;;9.40;99.90;;;;;;5078013;28;25082;-74
2023/02/13 13:34:58;;;;;;;5.05;2.88;;;9.40;99.90;;;;;;5099432;28;25118;-77
2023/02/13 13:37:37;;;;;;;4.05;2.50;;;9.40;99.90;;;;;;5099317;28;25061;-73
2023/02/13 13:40:22;;;;;;;4.53;2.33;;;9.50;99.90;;;;;;5081402;28;25075;-76
2023/02/13 13:42:54;;;;;;;4.23;2.17;;;9.50;99.90;;;;;;5099311;28;25060;-74
2023/02/13 13:46:10;;;;;;;4.15;2.40;;;9.60;99.90;;;;;;5099389;28;25055;-75
2023/02/13 13:48:51;;;;;;;5.20;2.42;;;9.60;99.90;;;;;;5091301;28;25061;-75
2023/02/13 13:51:19;;;;;;;4.15;2.40;;;9.60;99.90;;;;;;5099145;28;25069;-75
2023/02/13 13:54:05;;;;;;;4.53;2.60;;;9.60;99.90;;;;;;5099511;28;25059;-77
2023/02/13 13:57:00;;;;;;;4.85;2.85;;;9.60;99.90;;;;;;5081036;28;25061;-75
2023/02/13 13:59:38;;;;;;;4.82;2.75;;;9.70;99.90;;;;;;5099436;28;25077;-79
2023/02/13 14:02:17;;;;;;;4.65;2.75;;;9.70;99.90;;;;;;5099180;28;25051;-75
2023/02/13 14:05:02;;;;;;;5.63;2.80;;;9.80;99.90;;;;;;5099122;28;25066;-73
2023/02/13 14:07:40;;;;;;;4.28;2.70;;;9.80;99.90;;;;;;5098818;28;25148;-75
2023/02/13 14:10:27;;;;;;;5.15;2.95;;;9.80;99.90;;;;;;5099076;28;25114;-75
2023/02/13 14:12:58;;;;;;;6.85;3.33;;;9.90;99.90;;;;;;5098339;28;25058;-74